Terminal Aerodrome Forecast
Issued by NWS

Home | Current Version | Previous Version | Text Only | Print | Product List | Glossary On
Versions: 1 2 3 4 5 6 7 8 9 10 11 12 13 14 15 16
000
FTUS43 KDTX 240525
TAFPTK
TAF
KPTK 240525Z 2406/2506 33005KT P6SM FEW060
     FM241000 36004KT P6SM SCT025 BKN200
     FM241500 33007KT P6SM SCT040 BKN050 BKN150
     FM250000 35004KT P6SM SCT040=

USA.gov is the U.S. government's official web portal to all federal, state and local government web resources and services.